Time;durP1;ratioP1;P1;durP2;ratioP2;P2;SDS_P1;SDS_P2;PMS_P1;PMS_P2;Temp;Humidity;BMP_temperature;BMP_pressure;BME280_temperature;BME280_humidity;BME280_pressure;Samples;Min_cycle;Max_cycle;Signal;HPM_P1;HPM_P2
2024/03/03 00:01:53;;;;;;;;;;;8.70;90.20;;;;;;5011223;28;87615;-50
2024/03/03 00:04:19;;;;;;;;;;;8.70;90.20;;;;;;5016636;27;87742;-50
2024/03/03 00:06:44;;;;;;;;;;;8.70;90.20;;;;;;5014564;28;86987;-50
2024/03/03 00:09:10;;;;;;;;;;;8.70;90.10;;;;;;5019048;28;87516;-49
2024/03/03 00:11:35;;;;;;;;;;;8.70;90.10;;;;;;5015416;28;86853;-47
2024/03/03 00:14:01;;;;;;;;;;;8.70;90.10;;;;;;5012385;28;87207;-50
2024/03/03 00:16:31;;;;;;;;;;;8.70;90.20;;;;;;5015260;28;86975;-49
2024/03/03 00:18:57;;;;;;;;;;;8.70;90.20;;;;;;5011933;28;88109;-50
2024/03/03 00:21:23;;;;;;;;;;;8.70;90.20;;;;;;5013854;28;87717;-51
2024/03/03 00:23:49;;;;;;;;;;;8.70;90.10;;;;;;5013536;28;87795;-50
2024/03/03 00:26:14;;;;;;;;;;;8.70;90.20;;;;;;5021644;28;87090;-49
2024/03/03 00:28:40;;;;;;;;;;;8.70;90.20;;;;;;5018084;28;87771;-50
2024/03/03 00:31:06;;;;;;;;;;;8.70;90.10;;;;;;5019516;28;87320;-47
2024/03/03 00:33:31;;;;;;;;;;;8.60;90.10;;;;;;5015352;28;87712;-49
2024/03/03 00:35:57;;;;;;;;;;;8.60;90.20;;;;;;5013814;28;86483;-49
2024/03/03 00:38:22;;;;;;;;;;;8.60;90.20;;;;;;5016283;28;87004;-52
2024/03/03 00:40:48;;;;;;;;;;;8.60;90.20;;;;;;5011792;28;88432;-51
2024/03/03 00:43:14;;;;;;;;;;;8.60;90.20;;;;;;5011522;28;87961;-49
2024/03/03 00:45:39;;;;;;;;;;;8.60;90.10;;;;;;5013864;28;87957;-50
2024/03/03 00:48:05;;;;;;;;;;;8.60;90.10;;;;;;5011807;28;87794;-49
2024/03/03 00:50:30;;;;;;;;;;;8.60;90.10;;;;;;5012127;28;86994;-51
2024/03/03 00:52:56;;;;;;;;;;;8.60;90.10;;;;;;5015699;28;86931;-50
2024/03/03 00:55:22;;;;;;;;;;;8.60;90.00;;;;;;5016968;28;87328;-50
2024/03/03 00:57:47;;;;;;;;;;;8.60;90.40;;;;;;5009810;28;86832;-51
2024/03/03 01:00:13;;;;;;;;;;;8.60;90.10;;;;;;5018016;28;86628;-50
2024/03/03 01:02:39;;;;;;;;;;;8.60;90.10;;;;;;5020481;28;87011;-51
2024/03/03 01:05:05;;;;;;;;;;;8.50;90.40;;;;;;5018894;28;87075;-50
2024/03/03 01:07:30;;;;;;;;;;;8.50;90.10;;;;;;5018129;28;88968;-49
2024/03/03 01:09:56;;;;;;;;;;;8.50;90.10;;;;;;5014689;28;87529;-53
2024/03/03 01:12:21;;;;;;;;;;;8.50;90.40;;;;;;5018612;28;86953;-50
2024/03/03 01:14:47;;;;;;;;;;;8.50;90.10;;;;;;5017006;28;88164;-49
2024/03/03 01:17:12;;;;;;;;;;;8.50;90.20;;;;;;5017388;28;87016;-51
2024/03/03 01:19:38;;;;;;;;;;;8.50;90.10;;;;;;5014805;28;87971;-51
2024/03/03 01:22:03;;;;;;;;;;;8.50;90.10;;;;;;5012805;28;87058;-50
2024/03/03 01:24:29;;;;;;;;;;;8.50;90.10;;;;;;5012131;28;86799;-49
2024/03/03 01:26:55;;;;;;;;;;;8.50;90.10;;;;;;5013362;28;87784;-50
2024/03/03 01:29:20;;;;;;;;;;;8.40;90.10;;;;;;5011621;28;87721;-48
2024/03/03 01:31:46;;;;;;;;;;;8.40;90.10;;;;;;5013347;28;87911;-48
2024/03/03 01:34:12;;;;;;;;;;;8.40;90.10;;;;;;5016153;28;87548;-49
2024/03/03 01:36:38;;;;;;;;;;;8.40;90.10;;;;;;5015899;28;87019;-50
2024/03/03 01:39:03;;;;;;;;;;;8.40;90.10;;;;;;5017891;28;87598;-50
2024/03/03 01:41:29;;;;;;;;;;;8.40;90.10;;;;;;5014133;28;87073;-49
2024/03/03 01:43:54;;;;;;;;;;;8.40;90.10;;;;;;5016980;28;87070;-49
2024/03/03 01:46:20;;;;;;;;;;;8.40;90.10;;;;;;5015506;28;87290;-49
2024/03/03 01:48:46;;;;;;;;;;;8.40;90.10;;;;;;5018672;28;86232;-48
2024/03/03 01:51:12;;;;;;;;;;;8.40;90.10;;;;;;5018721;28;87353;-50
2024/03/03 01:53:39;;;;;;;;;;;8.40;90.20;;;;;;5018191;28;87440;-52
2024/03/03 01:56:05;;;;;;;;;;;8.40;90.10;;;;;;5014791;28;88653;-50
2024/03/03 01:58:31;;;;;;;;;;;8.40;90.00;;;;;;5014117;28;88440;-49
2024/03/03 02:01:00;;;;;;;;;;;8.30;90.10;;;;;;5013359;28;87018;-50
2024/03/03 02:03:27;;;;;;;;;;;8.30;90.10;;;;;;5016101;28;87071;-50
2024/03/03 02:05:53;;;;;;;;;;;8.30;90.10;;;;;;5014662;28;87433;-50
2024/03/03 02:08:19;;;;;;;;;;;8.30;90.10;;;;;;5016029;28;86999;-50
2024/03/03 02:10:45;;;;;;;;;;;8.30;90.10;;;;;;5016857;28;87066;-50
2024/03/03 02:13:10;;;;;;;;;;;8.30;90.10;;;;;;5016690;28;88720;-50
2024/03/03 02:15:36;;;;;;;;;;;8.30;90.10;;;;;;5011839;28;87121;-51
2024/03/03 02:18:02;;;;;;;;;;;8.30;90.10;;;;;;5020569;28;87042;-49
2024/03/03 02:20:27;;;;;;;;;;;8.30;90.20;;;;;;5016901;28;88060;-50
2024/03/03 02:22:53;;;;;;;;;;;8.30;90.20;;;;;;5016517;28;87177;-51
2024/03/03 02:25:19;;;;;;;;;;;8.30;90.10;;;;;;5014950;28;87792;-49
2024/03/03 02:27:45;;;;;;;;;;;8.30;90.10;;;;;;5015926;28;87042;-49
2024/03/03 02:30:11;;;;;;;;;;;8.30;90.10;;;;;;5013521;28;86952;-48
2024/03/03 02:32:37;;;;;;;;;;;8.30;90.10;;;;;;5016174;28;87659;-49
2024/03/03 02:35:02;;;;;;;;;;;8.20;90.10;;;;;;5014528;28;87116;-49
2024/03/03 02:37:28;;;;;;;;;;;8.20;90.10;;;;;;5017001;28;86964;-48
2024/03/03 02:39:54;;;;;;;;;;;8.20;90.40;;;;;;5016808;28;87460;-50
2024/03/03 02:42:19;;;;;;;;;;;8.20;90.10;;;;;;5014806;28;86999;-49
2024/03/03 02:44:45;;;;;;;;;;;8.20;90.00;;;;;;5013075;28;88438;-51
2024/03/03 02:47:10;;;;;;;;;;;8.20;90.10;;;;;;5015679;28;86976;-52
2024/03/03 02:49:36;;;;;;;;;;;8.20;90.10;;;;;;5016819;28;87911;-48
2024/03/03 02:52:01;;;;;;;;;;;8.20;90.10;;;;;;5013095;28;87658;-49
2024/03/03 02:54:28;;;;;;;;;;;8.20;90.00;;;;;;5011985;28;87308;-51
2024/03/03 02:56:53;;;;;;;;;;;8.20;90.00;;;;;;5012605;28;87986;-49
2024/03/03 02:59:19;;;;;;;;;;;8.20;90.10;;;;;;5016878;28;87596;-50
2024/03/03 03:01:45;;;;;;;;;;;8.20;90.10;;;;;;5018069;28;86158;-49
2024/03/03 03:04:10;;;;;;;;;;;8.20;90.00;;;;;;5015812;28;88319;-49
2024/03/03 03:06:36;;;;;;;;;;;8.10;90.10;;;;;;5016008;28;87742;-48
2024/03/03 03:09:02;;;;;;;;;;;8.10;90.10;;;;;;5013304;28;88318;-49
2024/03/03 03:11:27;;;;;;;;;;;8.10;90.10;;;;;;5012392;28;87025;-49
2024/03/03 03:13:53;;;;;;;;;;;8.10;90.00;;;;;;5012183;28;87035;-48
2024/03/03 03:16:19;;;;;;;;;;;8.10;90.10;;;;;;5015388;28;87864;-50
2024/03/03 03:18:44;;;;;;;;;;;8.10;90.00;;;;;;5016349;28;87453;-49
2024/03/03 03:21:10;;;;;;;;;;;8.10;90.00;;;;;;5017188;28;87036;-49
2024/03/03 03:23:35;;;;;;;;;;;8.10;90.20;;;;;;5019539;28;87649;-49
2024/03/03 03:26:01;;;;;;;;;;;8.10;90.00;;;;;;5015004;28;86310;-49
2024/03/03 03:28:27;;;;;;;;;;;8.10;90.00;;;;;;5013951;28;87156;-49
2024/03/03 03:30:52;;;;;;;;;;;8.10;90.00;;;;;;5015246;28;87752;-49
2024/03/03 03:33:18;;;;;;;;;;;8.10;90.00;;;;;;5014053;28;88012;-50
2024/03/03 03:35:43;;;;;;;;;;;8.10;90.00;;;;;;5011435;28;89041;-50
2024/03/03 03:38:09;;;;;;;;;;;8.00;90.10;;;;;;5012890;28;87072;-50
2024/03/03 03:40:35;;;;;;;;;;;8.10;90.00;;;;;;5015432;28;86877;-50
2024/03/03 03:43:04;;;;;;;;;;;8.00;90.00;;;;;;5020968;28;86969;-49
2024/03/03 03:45:29;;;;;;;;;;;8.10;90.00;;;;;;5013626;28;86999;-50
2024/03/03 03:47:55;;;;;;;;;;;8.00;90.00;;;;;;5016745;28;87109;-50
2024/03/03 03:50:20;;;;;;;;;;;8.00;90.00;;;;;;5017297;28;87834;-50
2024/03/03 03:52:46;;;;;;;;;;;8.00;90.00;;;;;;5012900;28;87350;-47
2024/03/03 03:55:11;;;;;;;;;;;8.00;90.00;;;;;;5010396;28;87157;-50
2024/03/03 03:57:37;;;;;;;;;;;8.00;90.10;;;;;;5014193;28;88535;-48
2024/03/03 04:00:05;;;;;;;;;;;8.00;90.10;;;;;;5010596;28;86868;-49
2024/03/03 04:02:30;;;;;;;;;;;8.00;90.00;;;;;;5013143;28;86971;-50
2024/03/03 04:04:57;;;;;;;;;;;8.00;90.00;;;;;;5018777;28;87401;-49
2024/03/03 04:07:22;;;;;;;;;;;8.00;90.10;;;;;;5015536;28;87537;-49
2024/03/03 04:09:49;;;;;;;;;;;7.90;90.00;;;;;;5013280;28;87310;-49
2024/03/03 04:12:14;;;;;;;;;;;7.90;90.20;;;;;;5011473;28;86987;-50
2024/03/03 04:14:40;;;;;;;;;;;7.90;90.10;;;;;;5008905;28;86606;-49
2024/03/03 04:17:06;;;;;;;;;;;7.90;90.10;;;;;;5016463;28;87384;-49
2024/03/03 04:19:32;;;;;;;;;;;7.90;90.00;;;;;;5012800;28;87004;-49
2024/03/03 04:21:57;;;;;;;;;;;7.90;90.10;;;;;;5011518;28;87870;-50
2024/03/03 04:24:23;;;;;;;;;;;7.90;90.10;;;;;;5013986;28;88443;-50
2024/03/03 04:26:48;;;;;;;;;;;7.90;90.00;;;;;;5014375;28;88523;-50
2024/03/03 04:29:14;;;;;;;;;;;7.90;90.00;;;;;;5013245;28;87531;-50
2024/03/03 04:31:43;;;;;;;;;;;7.90;90.00;;;;;;5008167;28;87278;-50
2024/03/03 04:34:10;;;;;;;;;;;7.80;90.10;;;;;;5013022;28;87828;-50
2024/03/03 04:36:35;;;;;;;;;;;7.80;90.10;;;;;;5016660;28;88724;-50
2024/03/03 04:39:01;;;;;;;;;;;7.80;90.10;;;;;;5016152;28;86357;-49
2024/03/03 04:41:28;;;;;;;;;;;7.80;90.00;;;;;;5016420;28;86970;-48
2024/03/03 04:43:54;;;;;;;;;;;7.80;90.10;;;;;;5012856;28;88497;-50
2024/03/03 04:46:20;;;;;;;;;;;7.80;90.20;;;;;;5016451;28;87832;-50
2024/03/03 04:48:45;;;;;;;;;;;7.80;90.20;;;;;;5016894;28;87809;-49
2024/03/03 04:51:11;;;;;;;;;;;7.70;90.20;;;;;;5016966;28;87913;-49
2024/03/03 04:53:36;;;;;;;;;;;7.70;90.20;;;;;;5020177;28;87337;-47
2024/03/03 04:56:03;;;;;;;;;;;7.70;90.20;;;;;;5015566;28;87306;-49
2024/03/03 04:58:29;;;;;;;;;;;7.80;90.10;;;;;;5012709;28;87069;-50
2024/03/03 05:00:55;;;;;;;;;;;7.80;89.90;;;;;;5014259;28;88177;-50
2024/03/03 05:03:21;;;;;;;;;;;7.80;89.80;;;;;;5012671;28;87131;-50
2024/03/03 05:05:46;;;;;;;;;;;7.90;89.70;;;;;;5014296;28;87211;-47
2024/03/03 05:08:12;;;;;;;;;;;7.80;89.70;;;;;;5018138;28;87413;-49
2024/03/03 05:10:38;;;;;;;;;;;7.80;89.60;;;;;;5016993;28;88387;-49
2024/03/03 05:13:03;;;;;;;;;;;7.80;89.60;;;;;;5014213;28;89089;-49
2024/03/03 05:15:29;;;;;;;;;;;7.80;89.60;;;;;;5013837;28;87612;-50
2024/03/03 05:17:55;;;;;;;;;;;7.80;89.60;;;;;;5018611;28;86991;-50
2024/03/03 05:20:20;;;;;;;;;;;7.80;89.60;;;;;;5016982;28;86973;-51
2024/03/03 05:22:47;;;;;;;;;;;7.80;89.60;;;;;;5015915;28;88422;-48
2024/03/03 05:25:13;;;;;;;;;;;7.80;89.50;;;;;;5016020;28;87199;-49
2024/03/03 05:27:38;;;;;;;;;;;7.80;89.60;;;;;;5016968;28;86374;-49
2024/03/03 05:30:04;;;;;;;;;;;7.70;89.60;;;;;;5009851;28;87089;-49
2024/03/03 05:32:30;;;;;;;;;;;7.80;89.50;;;;;;5016278;28;87158;-49
2024/03/03 05:34:55;;;;;;;;;;;7.70;89.50;;;;;;5015854;28;88598;-48
2024/03/03 05:37:21;;;;;;;;;;;7.70;89.40;;;;;;5017136;28;88779;-49
2024/03/03 05:39:47;;;;;;;;;;;7.70;89.50;;;;;;5015405;28;88199;-47
2024/03/03 05:42:12;;;;;;;;;;;7.70;89.50;;;;;;5016782;28;87538;-48
2024/03/03 05:44:38;;;;;;;;;;;7.70;89.50;;;;;;5014844;28;87023;-49
2024/03/03 05:47:05;;;;;;;;;;;7.70;89.50;;;;;;5012271;28;87871;-50
2024/03/03 05:49:31;;;;;;;;;;;7.70;89.40;;;;;;5011147;28;87560;-48
2024/03/03 05:51:56;;;;;;;;;;;7.60;89.50;;;;;;5019529;28;87329;-49
2024/03/03 05:54:22;;;;;;;;;;;7.70;89.30;;;;;;5015743;28;87484;-49
2024/03/03 05:56:47;;;;;;;;;;;7.70;89.20;;;;;;5015464;28;87099;-46
2024/03/03 05:59:16;;;;;;;;;;;7.70;89.20;;;;;;5014687;28;88147;-48
2024/03/03 06:01:47;;;;;;;;;;;7.60;89.20;;;;;;5012576;28;88558;-51
2024/03/03 06:04:19;;;;;;;;;;;7.60;89.20;;;;;;5015836;28;87050;-48
2024/03/03 06:06:45;;;;;;;;;;;7.70;89.20;;;;;;5016697;28;89492;-48
2024/03/03 06:09:12;;;;;;;;;;;7.60;89.10;;;;;;5014463;28;87719;-49
2024/03/03 06:11:41;;;;;;;;;;;7.70;89.10;;;;;;5016443;28;87058;-47
2024/03/03 06:14:08;;;;;;;;;;;7.60;89.10;;;;;;5014830;28;88053;-48
2024/03/03 06:16:33;;;;;;;;;;;7.60;89.00;;;;;;5012082;28;86803;-49
2024/03/03 06:18:59;;;;;;;;;;;7.60;89.10;;;;;;5013868;28;87025;-49
2024/03/03 06:21:25;;;;;;;;;;;7.60;89.70;;;;;;5015969;28;88373;-50
2024/03/03 06:23:50;;;;;;;;;;;7.60;89.10;;;;;;5017022;28;87938;-49
2024/03/03 06:26:16;;;;;;;;;;;7.60;89.10;;;;;;5010767;28;88900;-49
2024/03/03 06:28:44;;;;;;;;;;;7.60;89.10;;;;;;5012831;28;87615;-49
2024/03/03 06:31:10;;;;;;;;;;;7.60;89.00;;;;;;5017485;28;87053;-49
2024/03/03 06:33:36;;;;;;;;;;;7.60;89.00;;;;;;5017938;28;87486;-48
2024/03/03 06:36:01;;;;;;;;;;;7.60;88.90;;;;;;5015996;28;86955;-47
2024/03/03 06:38:27;;;;;;;;;;;7.60;88.90;;;;;;5015827;28;87261;-48
2024/03/03 06:40:53;;;;;;;;;;;7.60;88.90;;;;;;5015844;28;87925;-48
2024/03/03 06:43:20;;;;;;;;;;;7.60;89.00;;;;;;5016353;28;87046;-50
2024/03/03 06:45:46;;;;;;;;;;;7.60;88.90;;;;;;5012392;28;87142;-49
2024/03/03 06:48:11;;;;;;;;;;;7.60;88.90;;;;;;5015827;28;88902;-49
2024/03/03 06:50:37;;;;;;;;;;;7.60;88.90;;;;;;5013187;28;87640;-48
2024/03/03 06:53:03;;;;;;;;;;;7.50;88.90;;;;;;5015901;28;87105;-47
2024/03/03 06:55:28;;;;;;;;;;;7.60;88.90;;;;;;5007831;28;88405;-50
2024/03/03 06:57:54;;;;;;;;;;;7.60;88.90;;;;;;5017449;28;87054;-49
2024/03/03 07:00:20;;;;;;;;;;;7.60;88.90;;;;;;5013236;28;87535;-50
2024/03/03 07:05:29;;;;;;;;;;;7.50;88.90;;;;;;5012482;28;86317;-50
2024/03/03 07:07:55;;;;;;;;;;;7.50;88.90;;;;;;5009495;28;90296;-49
2024/03/03 07:10:20;;;;;;;;;;;7.50;89.00;;;;;;5013010;28;87664;-49
2024/03/03 07:12:46;;;;;;;;;;;7.50;88.90;;;;;;5013861;28;88322;-48
2024/03/03 07:15:12;;;;;;;;;;;7.50;89.00;;;;;;5013328;28;88015;-49
2024/03/03 07:17:37;;;;;;;;;;;7.50;89.00;;;;;;5012967;28;87463;-47
2024/03/03 07:20:05;;;;;;;;;;;7.50;88.90;;;;;;5019920;28;87093;-49
2024/03/03 07:22:34;;;;;;;;;;;7.50;89.00;;;;;;5014732;28;87000;-48
2024/03/03 07:25:03;;;;;;;;;;;7.50;88.90;;;;;;5012874;28;87698;-48
2024/03/03 07:27:29;;;;;;;;;;;7.50;89.00;;;;;;5008374;28;88480;-48
2024/03/03 07:29:55;;;;;;;;;;;7.50;88.90;;;;;;5014888;28;86241;-48
2024/03/03 07:32:20;;;;;;;;;;;7.50;88.80;;;;;;5012535;28;88785;-48
2024/03/03 07:34:48;;;;;;;;;;;7.50;88.80;;;;;;5010399;28;88600;-49
2024/03/03 07:37:14;;;;;;;;;;;7.50;88.80;;;;;;5015672;28;88987;-49
2024/03/03 07:39:40;;;;;;;;;;;7.50;88.80;;;;;;5014339;28;88765;-48
2024/03/03 07:42:06;;;;;;;;;;;7.50;89.00;;;;;;5010713;28;87664;-47
2024/03/03 07:44:32;;;;;;;;;;;7.50;88.90;;;;;;5011346;28;87054;-48
2024/03/03 07:46:57;;;;;;;;;;;7.50;89.10;;;;;;5010793;28;87820;-49
2024/03/03 07:49:23;;;;;;;;;;;7.50;89.00;;;;;;5013070;28;87361;-49
2024/03/03 07:51:48;;;;;;;;;;;7.50;88.80;;;;;;5010749;28;87465;-48
2024/03/03 07:54:14;;;;;;;;;;;7.50;88.90;;;;;;5009320;28;87754;-49
2024/03/03 07:56:39;;;;;;;;;;;7.50;88.90;;;;;;5015014;28;87075;-49
2024/03/03 07:59:06;;;;;;;;;;;7.40;89.00;;;;;;5011481;28;87244;-49
2024/03/03 08:01:34;;;;;;;;;;;7.40;89.10;;;;;;5016889;28;89245;-50
2024/03/03 08:04:00;;;;;;;;;;;7.40;88.90;;;;;;5007021;28;88897;-48
2024/03/03 08:06:25;;;;;;;;;;;7.40;89.20;;;;;;5019180;28;90208;-48
2024/03/03 08:08:51;;;;;;;;;;;7.40;89.30;;;;;;5010707;28;87000;-48
2024/03/03 08:11:16;;;;;;;;;;;7.40;89.60;;;;;;5013309;28;88672;-49
2024/03/03 08:13:42;;;;;;;;;;;7.40;89.60;;;;;;5011637;28;88101;-49
2024/03/03 08:16:07;;;;;;;;;;;7.40;89.40;;;;;;5011066;28;87619;-48
2024/03/03 08:18:33;;;;;;;;;;;7.40;89.20;;;;;;5013251;28;88372;-48
2024/03/03 08:20:59;;;;;;;;;;;7.40;89.40;;;;;;5010051;28;88676;-50
2024/03/03 08:23:25;;;;;;;;;;;7.40;89.60;;;;;;5012821;28;87594;-48
2024/03/03 08:25:50;;;;;;;;;;;7.40;89.40;;;;;;5013830;28;88478;-49
2024/03/03 08:28:16;;;;;;;;;;;7.40;89.50;;;;;;5016183;28;87060;-48
2024/03/03 08:30:42;;;;;;;;;;;7.40;89.50;;;;;;5011114;28;87024;-48
2024/03/03 08:33:08;;;;;;;;;;;7.40;89.40;;;;;;5010397;28;87510;-49
2024/03/03 08:35:33;;;;;;;;;;;7.40;89.30;;;;;;5010724;28;87028;-48
2024/03/03 08:37:59;;;;;;;;;;;7.40;89.20;;;;;;5010765;28;87027;-49
2024/03/03 08:40:24;;;;;;;;;;;7.40;89.40;;;;;;5013539;28;87709;-49
2024/03/03 08:42:50;;;;;;;;;;;7.40;89.30;;;;;;5010535;28;86324;-49
2024/03/03 08:45:16;;;;;;;;;;;7.40;89.30;;;;;;5019851;28;87377;-48
2024/03/03 08:47:42;;;;;;;;;;;7.40;89.20;;;;;;5012173;28;87005;-46
2024/03/03 08:50:09;;;;;;;;;;;7.40;89.30;;;;;;5009816;28;89114;-47
2024/03/03 08:52:34;;;;;;;;;;;7.40;89.20;;;;;;5008979;28;87434;-48
2024/03/03 08:55:00;;;;;;;;;;;7.40;89.10;;;;;;5010482;28;87105;-49
2024/03/03 08:57:25;;;;;;;;;;;7.40;89.20;;;;;;5014203;28;87855;-48
2024/03/03 08:59:51;;;;;;;;;;;7.40;89.20;;;;;;5010442;28;88785;-50
2024/03/03 09:02:16;;;;;;;;;;;7.40;89.10;;;;;;5007574;28;88631;-48
2024/03/03 09:04:42;;;;;;;;;;;7.50;89.20;;;;;;5011324;28;87377;-47
2024/03/03 09:07:08;;;;;;;;;;;7.40;89.20;;;;;;5017689;28;86927;-47
2024/03/03 09:09:36;;;;;;;;;;;7.50;89.20;;;;;;5012617;28;87790;-49
2024/03/03 09:12:02;;;;;;;;;;;7.50;89.10;;;;;;5012293;28;87810;-49
2024/03/03 09:14:28;;;;;;;;;;;7.40;89.20;;;;;;5015941;28;88785;-48
2024/03/03 09:16:53;;;;;;;;;;;7.40;89.40;;;;;;5013197;28;88889;-49
2024/03/03 09:19:19;;;;;;;;;;;7.40;89.30;;;;;;5013958;28;88387;-48
2024/03/03 09:21:44;;;;;;;;;;;7.50;89.40;;;;;;5011387;28;87028;-49
2024/03/03 09:24:10;;;;;;;;;;;7.50;89.30;;;;;;5016496;28;87390;-50
2024/03/03 09:26:35;;;;;;;;;;;7.40;89.50;;;;;;5013219;28;87377;-49
2024/03/03 09:29:01;;;;;;;;;;;7.40;89.40;;;;;;5019399;28;87720;-48
2024/03/03 09:31:26;;;;;;;;;;;7.40;89.30;;;;;;5015815;28;86804;-49
2024/03/03 09:33:52;;;;;;;;;;;7.50;89.30;;;;;;5017252;28;87781;-49
2024/03/03 09:36:18;;;;;;;;;;;7.50;89.40;;;;;;5019708;28;87989;-47
2024/03/03 09:38:43;;;;;;;;;;;7.40;89.40;;;;;;5011795;28;88556;-47
2024/03/03 09:41:09;;;;;;;;;;;7.40;89.30;;;;;;5016771;28;87179;-46
2024/03/03 09:43:38;;;;;;;;;;;7.50;89.50;;;;;;5017303;28;87024;-47
2024/03/03 09:46:04;;;;;;;;;;;7.40;89.50;;;;;;5012423;28;88300;-49
2024/03/03 09:48:30;;;;;;;;;;;7.50;89.60;;;;;;5017158;28;88462;-49
2024/03/03 09:50:57;;;;;;;;;;;7.50;89.70;;;;;;5013084;28;87616;-48
2024/03/03 09:53:22;;;;;;;;;;;7.40;89.60;;;;;;5014761;28;87577;-49
2024/03/03 09:55:48;;;;;;;;;;;7.50;89.70;;;;;;5014552;28;86741;-47
2024/03/03 09:58:14;;;;;;;;;;;7.40;89.60;;;;;;5014469;28;88911;-48
2024/03/03 10:00:40;;;;;;;;;;;7.50;89.70;;;;;;5013273;28;87628;-47
2024/03/03 10:03:09;;;;;;;;;;;7.50;89.70;;;;;;5015101;28;88019;-49
2024/03/03 10:05:36;;;;;;;;;;;7.50;89.90;;;;;;5016823;28;87211;-49
2024/03/03 10:08:02;;;;;;;;;;;7.50;89.70;;;;;;5010236;28;88744;-48
2024/03/03 10:10:33;;;;;;;;;;;7.50;89.80;;;;;;5018103;28;87735;-49
2024/03/03 10:13:01;;;;;;;;;;;7.50;89.80;;;;;;5015724;28;87884;-48
2024/03/03 10:15:28;;;;;;;;;;;7.50;89.80;;;;;;5013908;28;87989;-48
2024/03/03 10:17:54;;;;;;;;;;;7.50;89.90;;;;;;5013363;28;87644;-48
2024/03/03 10:20:19;;;;;;;;;;;7.50;90.10;;;;;;5012003;28;86387;-48
2024/03/03 10:22:45;;;;;;;;;;;7.50;89.90;;;;;;5017129;28;87635;-47
2024/03/03 10:25:11;;;;;;;;;;;7.50;90.10;;;;;;5015085;28;87564;-48
2024/03/03 10:27:41;;;;;;;;;;;7.50;90.00;;;;;;5009648;28;88425;-49
2024/03/03 10:30:09;;;;;;;;;;;7.50;90.10;;;;;;5009139;28;88702;-50
2024/03/03 10:32:35;;;;;;;;;;;7.50;90.30;;;;;;5014504;28;88497;-50
2024/03/03 10:35:01;;;;;;;;;;;7.50;90.10;;;;;;5013575;28;86986;-48
2024/03/03 10:37:27;;;;;;;;;;;7.50;90.20;;;;;;5009273;28;87620;-47
2024/03/03 10:39:53;;;;;;;;;;;7.50;90.30;;;;;;5016289;28;87259;-48
2024/03/03 10:42:18;;;;;;;;;;;7.50;90.20;;;;;;5016948;28;86921;-46
2024/03/03 10:44:44;;;;;;;;;;;7.50;90.30;;;;;;5016082;28;86902;-46
2024/03/03 10:47:11;;;;;;;;;;;7.50;90.30;;;;;;5014285;28;86949;-48
2024/03/03 10:49:39;;;;;;;;;;;7.50;90.40;;;;;;5013235;28;88313;-48
2024/03/03 10:52:09;;;;;;;;;;;7.50;90.40;;;;;;5016023;28;88406;-48
2024/03/03 10:54:35;;;;;;;;;;;7.50;90.40;;;;;;5015464;28;87475;-48
2024/03/03 10:57:00;;;;;;;;;;;7.50;90.40;;;;;;5015946;28;88073;-47
2024/03/03 10:59:28;;;;;;;;;;;7.50;90.50;;;;;;5014718;28;87070;-48
2024/03/03 11:01:54;;;;;;;;;;;7.50;90.40;;;;;;5013663;28;88502;-47
2024/03/03 11:04:20;;;;;;;;;;;7.50;90.50;;;;;;5014486;28;87516;-48
2024/03/03 11:06:48;;;;;;;;;;;7.60;90.50;;;;;;5011691;28;87416;-48
2024/03/03 11:09:14;;;;;;;;;;;7.60;90.50;;;;;;5016934;28;86728;-48
2024/03/03 11:11:42;;;;;;;;;;;7.60;90.50;;;;;;5016112;28;87375;-47
2024/03/03 11:14:07;;;;;;;;;;;7.60;90.50;;;;;;5011015;28;87090;-47
2024/03/03 11:16:36;;;;;;;;;;;7.60;90.60;;;;;;5014432;28;89762;-48
2024/03/03 11:19:03;;;;;;;;;;;7.60;90.60;;;;;;5011762;28;87869;-47
2024/03/03 11:21:31;;;;;;;;;;;7.60;90.60;;;;;;5014121;28;87053;-47
2024/03/03 11:24:06;;;;;;;;;;;7.60;90.50;;;;;;5013791;28;88210;-47
2024/03/03 11:26:45;;;;;;;;;;;7.60;90.70;;;;;;5012384;28;87823;-47
2024/03/03 11:29:11;;;;;;;;;;;7.70;90.60;;;;;;5014870;28;87800;-48
2024/03/03 11:31:38;;;;;;;;;;;7.60;90.60;;;;;;5018901;28;87392;-47
2024/03/03 11:34:04;;;;;;;;;;;7.70;90.60;;;;;;5018492;28;86998;-48
2024/03/03 11:36:30;;;;;;;;;;;7.70;90.60;;;;;;5017062;28;87080;-47
2024/03/03 11:38:57;;;;;;;;;;;7.70;90.70;;;;;;5017304;28;87700;-48
2024/03/03 11:41:23;;;;;;;;;;;7.70;90.70;;;;;;5012319;28;88016;-48
2024/03/03 11:43:50;;;;;;;;;;;7.80;90.60;;;;;;5014986;28;87610;-48
2024/03/03 11:46:35;;;;;;;;;;;7.80;90.60;;;;;;5010680;28;87049;-48
2024/03/03 11:49:02;;;;;;;;;;;7.80;90.60;;;;;;5012903;28;87210;-47
2024/03/03 11:51:30;;;;;;;;;;;7.80;90.40;;;;;;5011606;28;88572;-48
2024/03/03 11:54:00;;;;;;;;;;;8.00;90.60;;;;;;5011151;28;88015;-47
2024/03/03 11:56:30;;;;;;;;;;;8.20;87.50;;;;;;5013190;28;87206;-47
2024/03/03 11:58:56;;;;;;;;;;;8.40;89.80;;;;;;5016816;28;87753;-45
2024/03/03 12:01:22;;;;;;;;;;;8.50;89.70;;;;;;5017447;28;87397;-50
2024/03/03 12:03:47;;;;;;;;;;;8.40;90.00;;;;;;5012037;28;88762;-49
2024/03/03 12:06:15;;;;;;;;;;;8.40;89.10;;;;;;5014541;28;89493;-48
2024/03/03 12:08:41;;;;;;;;;;;8.40;89.60;;;;;;5010735;28;88616;-48
2024/03/03 12:11:12;;;;;;;;;;;8.30;90.00;;;;;;5011235;28;88441;-50
2024/03/03 12:13:38;;;;;;;;;;;8.20;90.40;;;;;;5008782;28;86993;-44
2024/03/03 12:16:03;;;;;;;;;;;8.10;90.00;;;;;;5009880;28;89678;-49
2024/03/03 12:18:29;;;;;;;;;;;8.30;87.50;;;;;;5011384;28;87623;-61
2024/03/03 12:20:54;;;;;;;;;;;8.50;88.00;;;;;;5013114;28;87025;-47
2024/03/03 12:23:20;;;;;;;;;;;8.70;86.90;;;;;;5009127;28;86852;-54
2024/03/03 12:25:46;;;;;;;;;;;8.80;84.00;;;;;;5014637;28;87136;-53
2024/03/03 12:28:11;;;;;;;;;;;9.00;82.20;;;;;;5017437;28;86935;-54
2024/03/03 12:30:37;;;;;;;;;;;9.00;82.90;;;;;;5009915;28;89608;-60
2024/03/03 12:33:07;;;;;;;;;;;8.90;83.90;;;;;;5010732;28;87157;-50
2024/03/03 12:35:33;;;;;;;;;;;8.90;82.00;;;;;;5012891;28;87094;-58
2024/03/03 12:37:58;;;;;;;;;;;8.90;81.10;;;;;;5015317;28;87660;-53
2024/03/03 12:40:27;;;;;;;;;;;9.00;80.00;;;;;;5013753;28;87050;-58
2024/03/03 12:42:53;;;;;;;;;;;9.20;82.00;;;;;;5015148;28;87057;-46
2024/03/03 12:45:19;;;;;;;;;;;9.20;81.30;;;;;;5016733;28;88683;-53
2024/03/03 12:47:44;;;;;;;;;;;9.20;81.60;;;;;;5013075;28;86786;-55
2024/03/03 12:50:13;;;;;;;;;;;9.20;80.60;;;;;;5014255;28;87411;-61
2024/03/03 12:52:45;;;;;;;;;;;9.20;81.10;;;;;;5011866;28;87174;-58
2024/03/03 12:55:11;;;;;;;;;;;9.30;80.80;;;;;;5012539;28;88805;-53
2024/03/03 12:57:40;;;;;;;;;;;9.40;80.00;;;;;;5013590;28;87636;-52
2024/03/03 13:00:07;;;;;;;;;;;9.40;80.10;;;;;;5018373;28;88082;-51
2024/03/03 13:02:33;;;;;;;;;;;9.40;81.20;;;;;;5011159;28;87816;-63
2024/03/03 13:04:59;;;;;;;;;;;9.40;81.90;;;;;;5017761;28;87114;-43
2024/03/03 13:07:25;;;;;;;;;;;9.50;83.00;;;;;;5018645;28;86982;-44
2024/03/03 13:09:50;;;;;;;;;;;9.50;82.30;;;;;;5017881;28;87454;-41
2024/03/03 13:12:16;;;;;;;;;;;9.50;82.30;;;;;;5014712;27;86938;-47
2024/03/03 13:14:42;;;;;;;;;;;9.60;81.00;;;;;;5018990;28;86977;-47
2024/03/03 13:17:08;;;;;;;;;;;9.60;80.90;;;;;;5020327;28;87360;-57
2024/03/03 13:19:44;;;;;;;;;;;9.60;81.30;;;;;;5016018;28;88698;-60
2024/03/03 13:22:09;;;;;;;;;;;9.60;79.80;;;;;;5017782;28;87742;-60
2024/03/03 13:24:38;;;;;;;;;;;9.70;80.80;;;;;;5022271;28;87524;-58
2024/03/03 13:27:04;;;;;;;;;;;9.70;80.70;;;;;;5018628;28;86987;-57
2024/03/03 13:29:29;;;;;;;;;;;9.70;81.90;;;;;;5017415;28;87064;-53
2024/03/03 13:31:55;;;;;;;;;;;9.50;82.70;;;;;;5013473;28;87532;-55
2024/03/03 13:45:47;;;;;;;;;;;9.30;84.30;;;;;;5024103;28;80107;-47
2024/03/03 13:48:14;;;;;;;;;;;9.20;84.60;;;;;;5012550;28;80354;-57
2024/03/03 13:50:40;;;;;;;;;;;9.20;84.50;;;;;;5013137;28;81334;-50
2024/03/03 13:53:09;;;;;;;;;;;9.10;84.80;;;;;;5012945;28;81160;-51
2024/03/03 13:55:35;;;;;;;;;;;9.20;84.70;;;;;;5014454;28;80160;-58
2024/03/03 13:58:01;;;;;;;;;;;9.10;85.30;;;;;;5013405;28;80297;-45
2024/03/03 14:00:28;;;;;;;;;;;9.10;86.40;;;;;;5009143;28;81589;-51
2024/03/03 14:02:54;;;;;;;;;;;9.10;85.50;;;;;;5009463;28;80129;-58
2024/03/03 14:05:20;;;;;;;;;;;9.20;85.20;;;;;;5013492;28;80137;-49
2024/03/03 14:07:45;;;;;;;;;;;9.10;84.90;;;;;;5015563;28;80135;-50
2024/03/03 14:10:11;;;;;;;;;;;9.10;85.40;;;;;;5011416;28;80303;-46
2024/03/03 14:12:37;;;;;;;;;;;9.10;85.10;;;;;;5011561;28;80813;-50
2024/03/03 14:15:02;;;;;;;;;;;9.10;85.00;;;;;;5008907;28;80245;-49
2024/03/03 14:17:28;;;;;;;;;;;9.10;84.90;;;;;;5012503;28;80290;-49
2024/03/03 14:19:54;;;;;;;;;;;9.10;84.80;;;;;;5014659;28;81146;-46
2024/03/03 14:22:19;;;;;;;;;;;9.10;84.50;;;;;;5015170;28;80210;-53
2024/03/03 14:24:45;;;;;;;;;;;9.20;84.40;;;;;;5011270;28;80334;-53
2024/03/03 14:27:10;;;;;;;;;;;9.10;85.20;;;;;;5015347;28;80991;-52
2024/03/03 14:29:36;;;;;;;;;;;9.10;85.60;;;;;;5010228;28;80218;-52
2024/03/03 14:32:03;;;;;;;;;;;9.10;86.00;;;;;;5014626;28;81624;-52
2024/03/03 14:34:29;;;;;;;;;;;9.10;86.20;;;;;;5009372;28;81245;-51
2024/03/03 14:36:55;;;;;;;;;;;9.10;86.10;;;;;;5012160;28;80393;-49
2024/03/03 14:39:20;;;;;;;;;;;9.30;86.20;;;;;;5010146;28;80736;-53